Flugplatz Regensburg-Oberhub

Für EDNR sind keine METAR/TAF Berichte vorhanden.
Es werden die Flugwettermeldungen vom Flugplatz Hohenfels Army Air Field in 19 km Entfernung angezeigt.

Bericht für ETIH

vom 25.09. um 20:01 UTC

kein Wind

Sichtweite 10 km oder mehr

aufgebrochene Bewölkung in 900 ft

bedeckt in 1500 ft

Temperatur 7.0°C

Taupunkt 6.0°C

Luftfeuchtigkeit 93%

Luftdruck 1001 hPa

ETIH 252001Z AUTO 00000KT 9999 BKN009 OVC015 07/06 A2955 RMK AO2 CIG 008V010 SLP012 $
Keine Prognose (TAF) verfügbar.
Impressum